WetterOnline ( http://www.wetteronline.de )

Wetter aktuell Weißenburg in Bayern

Aktuelles Wetter: Weißenburg (424m)

6-stündlich | Neueste Meldungen
Ortszeit Temperatur Wetter
Fr, 22.03. 13:00 16.6° C leicht bewölkt
Fr, 22.03. 7:00 -1.6° C wolkig
Fr, 22.03. 1:00 1.1° C wolkenlos
Do, 21.03. 19:00 10.7° C wolkig
Do, 21.03. 13:00 12.5° C leicht bewölkt
Do, 21.03. 7:00 -3.2° C leicht bewölkt
Do, 21.03. 1:00 -1.8° C wolkenlos
Mi, 20.03. 19:00 6.8° C wolkenlos
Ortszeit Temperatur Wetter
Fr, 22.03. 17:00 16.1° C wolkenlos
Fr, 22.03. 16:50 16.1° C wolkenlos
Fr, 22.03. 16:40 16.4° C wolkenlos
Fr, 22.03. 16:30 16.4° C fast wolkenlos
Fr, 22.03. 16:20 16.4° C fast wolkenlos
Fr, 22.03. 16:10 16.6° C leicht bewölkt
Fr, 22.03. 16:00 16.6° C leicht bewölkt
Fr, 22.03. 15:30 16.4° C wolkig
Fr, 22.03. 15:00 16.8° C leicht bewölkt
Fr, 22.03. 14:30 17.0° C wolkig
Fr, 22.03. 14:00 16.8° C wolkig
Ortszeit Relative Feuchte Sichtweite
Fr, 22.03. 13:00 37% 22 km
Fr, 22.03. 7:00 88% 29 km
Fr, 22.03. 1:00 78% 45 km
Do, 21.03. 19:00 36% 70 km
Do, 21.03. 13:00 33% 35 km
Do, 21.03. 7:00 89% 35 km
Do, 21.03. 1:00 87% 40 km
Mi, 20.03. 19:00 44% 50 km
Ortszeit Relative Feuchte Sichtweite
Fr, 22.03. 17:00 41% 35 km
Fr, 22.03. 16:50 41% -
Fr, 22.03. 16:40 41% -
Fr, 22.03. 16:30 40% 35 km
Fr, 22.03. 16:20 40% -
Fr, 22.03. 16:10 40% -
Fr, 22.03. 16:00 41% 30 km
Fr, 22.03. 15:30 40% 50 km
Fr, 22.03. 15:00 38% 26 km
Fr, 22.03. 14:30 39% 35 km
Fr, 22.03. 14:00 39% 45 km
Ortszeit Niederschlagsmenge Niederschlagsart
Fr, 22.03. 13:00 0.0 l/m2 in 6 Std. -
Fr, 22.03. 7:00 0.0 l/m2 in 12 Std. -
Fr, 22.03. 1:00 0.0 l/m2 in 6 Std. -
Do, 21.03. 19:00 0.0 l/m2 in 12 Std. -
Do, 21.03. 13:00 0.0 l/m2 in 6 Std. -
Do, 21.03. 7:00 0.0 l/m2 in 12 Std. -
Do, 21.03. 1:00 0.0 l/m2 in 6 Std. -
Mi, 20.03. 19:00 0.0 l/m2 in 12 Std. -
Ortszeit Niederschlagsmenge Niederschlagsart
Fr, 22.03. 17:00 0.0 l/m2 in 1 Std. -
Fr, 22.03. 16:50 keine Meldung -
Fr, 22.03. 16:40 keine Meldung -
Fr, 22.03. 16:30 0.0 l/m2 in 1 Std. -
Fr, 22.03. 16:20 keine Meldung -
Fr, 22.03. 16:10 keine Meldung -
Fr, 22.03. 16:00 0.0 l/m2 in 1 Std. -
Fr, 22.03. 15:30 0.0 l/m2 in 1 Std. -
Fr, 22.03. 15:00 0.0 l/m2 in 1 Std. -
Fr, 22.03. 14:30 0.0 l/m2 in 1 Std. -
Fr, 22.03. 14:00 0.0 l/m2 in 1 Std. -
Ortszeit Stärke Spitze Richtung
km/h Bft. km/h Grad Sektor
Fr, 22.03. 13:00 19 3 31 110° O
Fr, 22.03. 7:00 4 1 11 160° S
Fr, 22.03. 1:00 9 2 13 200° S
Do, 21.03. 19:00 2 1 31 70° O
Do, 21.03. 13:00 15 3 33 70° O
Do, 21.03. 7:00 0 0 14 - -
Do, 21.03. 1:00 9 2 15 200° S
Mi, 20.03. 19:00 4 1 22 50° NO
Ortszeit Stärke Spitze Richtung
km/h Bft. km/h Grad Sektor
Fr, 22.03. 17:00 18 3 25 150° SO
Fr, 22.03. 16:50 18 3 - 150° SO
Fr, 22.03. 16:40 14 3 - 130° SO
Fr, 22.03. 16:30 14 3 25 140° SO
Fr, 22.03. 16:20 14 3 - 140° SO
Fr, 22.03. 16:10 15 3 - 130° SO
Fr, 22.03. 16:00 18 3 32 130° SO
Fr, 22.03. 15:30 13 3 31 120° SO
Fr, 22.03. 15:00 22 4 32 130° SO
Fr, 22.03. 14:30 19 3 26 80° O
Fr, 22.03. 14:00 13 3 30 60° NO
Ortszeit Untergrenze Bedeckung Gattung
total tief tief mittel hoch
Fr, 22.03. 13:00 8400 m 8/8 0/8 - - -
Fr, 22.03. 7:00 9000 m 8/8 0/8 - - -
Fr, 22.03. 1:00 - 0/8 0/8 - - -
Do, 21.03. 19:00 10500 m 8/8 0/8 - - -
Do, 21.03. 13:00 10500 m 4/8 0/8 - - -
Do, 21.03. 7:00 10500 m 6/8 0/8 - - -
Do, 21.03. 1:00 - 0/8 0/8 - - -
Mi, 20.03. 19:00 - 0/8 0/8 - - -
Ortszeit Bedeckungsgrad in Achtel und Wolkenuntergrenze
Fr, 22.03. 17:00 keine Wolken
Fr, 22.03. 16:50 keine Wolken
Fr, 22.03. 16:40 keine Wolken
Fr, 22.03. 16:30 2(8700m)
Fr, 22.03. 16:20 2(8700m)
Fr, 22.03. 16:10 4(8700m)
Fr, 22.03. 16:00 6(9000m)
Fr, 22.03. 15:30 7(9000m) 8(9000m)
Fr, 22.03. 15:00 4(8100m) 8(8700m) 7(9000m)
Fr, 22.03. 14:30 8(7800m)
Fr, 22.03. 14:00 8(6900m) 8(7500m) 8(9000m)
Ortszeit Luftdruck NN (hPa) Tendenz (hPa in 3 Std.)
Fr, 22.03. 13:00 1029 - 1,3
Fr, 22.03. 7:00 1034 + 0,4
Fr, 22.03. 1:00 1034 - 0,3
Do, 21.03. 19:00 1032 0,0
Do, 21.03. 13:00 1033 - 1,3
Do, 21.03. 7:00 1038 0,0
Do, 21.03. 1:00 1038 0,0
Mi, 20.03. 19:00 1035 + 0,5
Ortszeit Luftdruck NN (hPa) Tendenz (hPa in 3 Std.)
Fr, 22.03. 17:00 1028 - 0,9
Fr, 22.03. 16:50 1028 keine Meldung
Fr, 22.03. 16:40 1028 keine Meldung
Fr, 22.03. 16:30 1028 - 1,1
Fr, 22.03. 16:20 1028 keine Meldung
Fr, 22.03. 16:10 1028 keine Meldung
Fr, 22.03. 16:00 1028 - 1,3
Fr, 22.03. 15:30 1028 - 1,1
Fr, 22.03. 15:00 1028 - 1,3
Fr, 22.03. 14:30 1029 - 1,3
Fr, 22.03. 14:00 1029 - 1,5
Ortszeit Schneehöhe (cm)
Fr, 22.03. 13:00 0
Fr, 22.03. 7:00 0
Fr, 22.03. 1:00 0
Do, 21.03. 19:00 0
Do, 21.03. 13:00 0
Do, 21.03. 7:00 0
Do, 21.03. 1:00 0
Mi, 20.03. 19:00 0
Ortszeit Schneehöhe (cm)
Fr, 22.03. 17:00 0
Fr, 22.03. 16:50 0
Fr, 22.03. 16:40 0
Fr, 22.03. 16:30 0
Fr, 22.03. 16:20 0
Fr, 22.03. 16:10 0
Fr, 22.03. 16:00 0
Fr, 22.03. 15:30 0
Fr, 22.03. 15:00 0
Fr, 22.03. 14:30 0
Fr, 22.03. 14:00 0
Link zu dieser Seite / Seite empfehlen

Das Wetter in ...